<?xml version="1.0" encoding="utf-8"?>
<gpx xmlns:xsi="http://www.w3.org/2001/XMLSchema-instance" xmlns:xsd="http://www.w3.org/2001/XMLSchema" version="1.1" creator="Shapelink.com" xmlns="http://www.topografix.com/GPX/1/1" xmlns:gpxtpx="http://www.garmin.com/xmlschemas/TrackPointExtension/v1">
  <metadata>
    <name>Övrigt 3.53 km, 2019-07-30</name>
    <desc></desc>
    <author><name>Marian Moron</name></author> 
    <time>2019-07-30T12:16:22Z</time>
  </metadata>
  <trk>
    <name>Övrigt 3.53 km, 2019-07-30</name>
    <trkseg>
      <trkpt lat="53.953157402396" lon="16.586529688158">
        <ele>194</ele>
        <time>2019-07-30T12:16:22Z</time>
      </trkpt>
      <trkpt lat="53.953147595573" lon="16.586566568518">
        <ele>193.6</ele>
        <time>2019-07-30T12:16:24Z</time>
      </trkpt>
      <trkpt lat="53.953095795431" lon="16.586899749043">
        <ele>187.4</ele>
        <time>2019-07-30T12:16:44Z</time>
      </trkpt>
      <trkpt lat="53.953264020164" lon="16.587341894268">
        <ele>149.6</ele>
        <time>2019-07-30T12:17:53Z</time>
      </trkpt>
      <trkpt lat="53.953267875838" lon="16.58723695288">
        <ele>147.8</ele>
        <time>2019-07-30T12:18:18Z</time>
      </trkpt>
      <trkpt lat="53.953394693985" lon="16.586917015757">
        <ele>147.4</ele>
        <time>2019-07-30T12:18:43Z</time>
      </trkpt>
      <trkpt lat="53.953388156103" lon="16.586583751413">
        <ele>147</ele>
        <time>2019-07-30T12:19:57Z</time>
      </trkpt>
      <trkpt lat="53.953355634331" lon="16.587806586804">
        <ele>147.2</ele>
        <time>2019-07-30T12:20:48Z</time>
      </trkpt>
      <trkpt lat="53.953469628171" lon="16.587260925114">
        <ele>145.8</ele>
        <time>2019-07-30T12:20:56Z</time>
      </trkpt>
      <trkpt lat="53.953300816705" lon="16.586748371929">
        <ele>144.4</ele>
        <time>2019-07-30T12:21:08Z</time>
      </trkpt>
      <trkpt lat="53.953257482282" lon="16.586608142742">
        <ele>122</ele>
        <time>2019-07-30T12:21:43Z</time>
      </trkpt>
      <trkpt lat="53.953227642718" lon="16.586563551034">
        <ele>120.4</ele>
        <time>2019-07-30T12:21:48Z</time>
      </trkpt>
      <trkpt lat="53.953237114265" lon="16.586549888537">
        <ele>116</ele>
        <time>2019-07-30T12:21:59Z</time>
      </trkpt>
      <trkpt lat="53.953201155914" lon="16.586695565959">
        <ele>114.4</ele>
        <time>2019-07-30T12:22:08Z</time>
      </trkpt>
      <trkpt lat="53.953182631915" lon="16.586728003912">
        <ele>113.8</ele>
        <time>2019-07-30T12:22:11Z</time>
      </trkpt>
      <trkpt lat="53.952967552361" lon="16.586834034947">
        <ele>110.8</ele>
        <time>2019-07-30T12:22:37Z</time>
      </trkpt>
      <trkpt lat="53.952952045846" lon="16.586789610877">
        <ele>111.4</ele>
        <time>2019-07-30T12:22:40Z</time>
      </trkpt>
      <trkpt lat="53.95293913772" lon="16.586735463803">
        <ele>111.4</ele>
        <time>2019-07-30T12:22:44Z</time>
      </trkpt>
      <trkpt lat="53.952927235422" lon="16.586668827698">
        <ele>111.2</ele>
        <time>2019-07-30T12:22:48Z</time>
      </trkpt>
      <trkpt lat="53.952903263188" lon="16.586611914597">
        <ele>110.8</ele>
        <time>2019-07-30T12:22:54Z</time>
      </trkpt>
      <trkpt lat="53.952873004529" lon="16.586612920425">
        <ele>110</ele>
        <time>2019-07-30T12:23:03Z</time>
      </trkpt>
      <trkpt lat="53.952859761127" lon="16.586570088916">
        <ele>109.4</ele>
        <time>2019-07-30T12:23:12Z</time>
      </trkpt>
      <trkpt lat="53.952900161885" lon="16.586506637933">
        <ele>108.4</ele>
        <time>2019-07-30T12:23:20Z</time>
      </trkpt>
      <trkpt lat="53.953003594531" lon="16.586370432058">
        <ele>109.4</ele>
        <time>2019-07-30T12:23:36Z</time>
      </trkpt>
      <trkpt lat="53.953306013483" lon="16.585820914694">
        <ele>105.2</ele>
        <time>2019-07-30T12:24:40Z</time>
      </trkpt>
      <trkpt lat="53.953428556861" lon="16.585818986857">
        <ele>111.2</ele>
        <time>2019-07-30T12:25:36Z</time>
      </trkpt>
      <trkpt lat="53.953472142741" lon="16.585773724597">
        <ele>110.8</ele>
        <time>2019-07-30T12:25:41Z</time>
      </trkpt>
      <trkpt lat="53.953417911848" lon="16.585738772074">
        <ele>167</ele>
        <time>2019-07-30T12:27:37Z</time>
      </trkpt>
      <trkpt lat="53.953525703082" lon="16.585655707445">
        <ele>152.6</ele>
        <time>2019-07-30T12:27:39Z</time>
      </trkpt>
      <trkpt lat="53.953451942362" lon="16.585544982546">
        <ele>132.8</ele>
        <time>2019-07-30T12:27:47Z</time>
      </trkpt>
      <trkpt lat="53.953443811919" lon="16.585570966436">
        <ele>124.4</ele>
        <time>2019-07-30T12:28:21Z</time>
      </trkpt>
      <trkpt lat="53.953409446129" lon="16.585492847128">
        <ele>123.6</ele>
        <time>2019-07-30T12:28:36Z</time>
      </trkpt>
      <trkpt lat="53.9534269643" lon="16.585553699722">
        <ele>123.8</ele>
        <time>2019-07-30T12:29:43Z</time>
      </trkpt>
      <trkpt lat="53.953501144115" lon="16.58560751152">
        <ele>124.8</ele>
        <time>2019-07-30T12:29:52Z</time>
      </trkpt>
      <trkpt lat="53.953606923693" lon="16.585832481716">
        <ele>121.2</ele>
        <time>2019-07-30T12:30:09Z</time>
      </trkpt>
      <trkpt lat="53.953723096827" lon="16.5859277001">
        <ele>117.8</ele>
        <time>2019-07-30T12:30:45Z</time>
      </trkpt>
      <trkpt lat="53.953684456268" lon="16.585965670107">
        <ele>117.4</ele>
        <time>2019-07-30T12:30:50Z</time>
      </trkpt>
      <trkpt lat="53.953598625612" lon="16.58588746698">
        <ele>115.8</ele>
        <time>2019-07-30T12:31:02Z</time>
      </trkpt>
      <trkpt lat="53.953512543499" lon="16.585735670771">
        <ele>114.6</ele>
        <time>2019-07-30T12:31:15Z</time>
      </trkpt>
      <trkpt lat="53.953429311232" lon="16.585704825379">
        <ele>113.8</ele>
        <time>2019-07-30T12:31:22Z</time>
      </trkpt>
      <trkpt lat="53.953172322178" lon="16.585070902282">
        <ele>107.6</ele>
        <time>2019-07-30T12:32:04Z</time>
      </trkpt>
      <trkpt lat="53.9530078693" lon="16.58439297421">
        <ele>109</ele>
        <time>2019-07-30T12:32:44Z</time>
      </trkpt>
      <trkpt lat="53.953175926395" lon="16.58405518364">
        <ele>102.8</ele>
        <time>2019-07-30T12:33:08Z</time>
      </trkpt>
      <trkpt lat="53.953179111517" lon="16.583935154832">
        <ele>101.4</ele>
        <time>2019-07-30T12:33:41Z</time>
      </trkpt>
      <trkpt lat="53.953121779321" lon="16.584218463052">
        <ele>104.6</ele>
        <time>2019-07-30T12:33:59Z</time>
      </trkpt>
      <trkpt lat="53.953091855938" lon="16.5847877617">
        <ele>105.6</ele>
        <time>2019-07-30T12:34:32Z</time>
      </trkpt>
      <trkpt lat="53.953362088394" lon="16.585413302897">
        <ele>114.4</ele>
        <time>2019-07-30T12:35:11Z</time>
      </trkpt>
      <trkpt lat="53.953430065603" lon="16.585551771885">
        <ele>116.2</ele>
        <time>2019-07-30T12:35:27Z</time>
      </trkpt>
      <trkpt lat="53.953431490526" lon="16.585557471577">
        <ele>116</ele>
        <time>2019-07-30T12:35:40Z</time>
      </trkpt>
      <trkpt lat="53.953424114454" lon="16.58561337885">
        <ele>119</ele>
        <time>2019-07-30T12:35:49Z</time>
      </trkpt>
      <trkpt lat="53.953426712843" lon="16.585615306687">
        <ele>120</ele>
        <time>2019-07-30T12:35:53Z</time>
      </trkpt>
      <trkpt lat="53.953427048119" lon="16.585576749947">
        <ele>118.4</ele>
        <time>2019-07-30T12:36:30Z</time>
      </trkpt>
      <trkpt lat="53.953533498249" lon="16.585772132036">
        <ele>119.4</ele>
        <time>2019-07-30T12:37:03Z</time>
      </trkpt>
      <trkpt lat="53.953461246271" lon="16.585814209174">
        <ele>114</ele>
        <time>2019-07-30T12:37:21Z</time>
      </trkpt>
      <trkpt lat="53.953434927105" lon="16.585788392922">
        <ele>112.2</ele>
        <time>2019-07-30T12:37:24Z</time>
      </trkpt>
      <trkpt lat="53.953373068683" lon="16.585713877831">
        <ele>110.6</ele>
        <time>2019-07-30T12:37:31Z</time>
      </trkpt>
      <trkpt lat="53.953360831109" lon="16.585728713794">
        <ele>110.6</ele>
        <time>2019-07-30T12:38:06Z</time>
      </trkpt>
      <trkpt lat="53.953381282945" lon="16.585748662716">
        <ele>112.4</ele>
        <time>2019-07-30T12:38:10Z</time>
      </trkpt>
      <trkpt lat="53.953311126442" lon="16.585916216897">
        <ele>110</ele>
        <time>2019-07-30T12:38:38Z</time>
      </trkpt>
      <trkpt lat="53.953123371882" lon="16.586179408557">
        <ele>110.8</ele>
        <time>2019-07-30T12:39:19Z</time>
      </trkpt>
      <trkpt lat="53.952819444188" lon="16.586733535966">
        <ele>111.4</ele>
        <time>2019-07-30T12:40:19Z</time>
      </trkpt>
      <trkpt lat="53.952801842198" lon="16.586746276454">
        <ele>110.8</ele>
        <time>2019-07-30T12:40:27Z</time>
      </trkpt>
      <trkpt lat="53.952769907159" lon="16.586579644282">
        <ele>106.8</ele>
        <time>2019-07-30T12:41:50Z</time>
      </trkpt>
      <trkpt lat="53.952750796427" lon="16.58676672829">
        <ele>112.6</ele>
        <time>2019-07-30T12:41:54Z</time>
      </trkpt>
      <trkpt lat="53.952663624667" lon="16.586941574724">
        <ele>113</ele>
        <time>2019-07-30T12:42:33Z</time>
      </trkpt>
      <trkpt lat="53.952816091428" lon="16.586727584817">
        <ele>111.4</ele>
        <time>2019-07-30T12:43:06Z</time>
      </trkpt>
      <trkpt lat="53.952936287874" lon="16.586503871906">
        <ele>111.8</ele>
        <time>2019-07-30T12:43:37Z</time>
      </trkpt>
      <trkpt lat="53.953225714881" lon="16.586032390031">
        <ele>115.6</ele>
        <time>2019-07-30T12:45:28Z</time>
      </trkpt>
      <trkpt lat="53.953407434473" lon="16.58578353142">
        <ele>115.6</ele>
        <time>2019-07-30T12:47:09Z</time>
      </trkpt>
      <trkpt lat="53.953441045892" lon="16.585804402351">
        <ele>115.8</ele>
        <time>2019-07-30T12:47:16Z</time>
      </trkpt>
      <trkpt lat="53.953446913222" lon="16.585807336016">
        <ele>115.4</ele>
        <time>2019-07-30T12:47:18Z</time>
      </trkpt>
      <trkpt lat="53.95354766366" lon="16.585873133931">
        <ele>112</ele>
        <time>2019-07-30T12:47:40Z</time>
      </trkpt>
      <trkpt lat="53.953650341935" lon="16.586219138763">
        <ele>111</ele>
        <time>2019-07-30T12:48:10Z</time>
      </trkpt>
      <trkpt lat="53.953679343309" lon="16.586262640824">
        <ele>111.4</ele>
        <time>2019-07-30T12:48:14Z</time>
      </trkpt>
      <trkpt lat="53.953494103319" lon="16.586942915828">
        <ele>114.2</ele>
        <time>2019-07-30T12:49:01Z</time>
      </trkpt>
      <trkpt lat="53.953401148048" lon="16.587017430919">
        <ele>124.8</ele>
        <time>2019-07-30T12:49:25Z</time>
      </trkpt>
      <trkpt lat="53.953414810545" lon="16.586883907252">
        <ele>136.6</ele>
        <time>2019-07-30T12:52:43Z</time>
      </trkpt>
      <trkpt lat="53.953505502703" lon="16.586519713697">
        <ele>132.2</ele>
        <time>2019-07-30T12:53:22Z</time>
      </trkpt>
      <trkpt lat="53.95349988683" lon="16.586453831963">
        <ele>131</ele>
        <time>2019-07-30T12:53:24Z</time>
      </trkpt>
      <trkpt lat="53.953533330611" lon="16.586447545538">
        <ele>134</ele>
        <time>2019-07-30T12:53:31Z</time>
      </trkpt>
      <trkpt lat="53.953679762404" lon="16.586163147671">
        <ele>116.8</ele>
        <time>2019-07-30T12:55:42Z</time>
      </trkpt>
      <trkpt lat="53.953622849303" lon="16.585932980697">
        <ele>112.6</ele>
        <time>2019-07-30T12:58:06Z</time>
      </trkpt>
      <trkpt lat="53.953614299765" lon="16.585867937153">
        <ele>114</ele>
        <time>2019-07-30T12:58:36Z</time>
      </trkpt>
      <trkpt lat="53.953583873468" lon="16.585778418461">
        <ele>114</ele>
        <time>2019-07-30T12:59:28Z</time>
      </trkpt>
      <trkpt lat="53.953592674463" lon="16.585766180887">
        <ele>114</ele>
        <time>2019-07-30T13:03:24Z</time>
      </trkpt>
      <trkpt lat="53.953648497917" lon="16.585929292661">
        <ele>112.2</ele>
        <time>2019-07-30T13:06:33Z</time>
      </trkpt>
      <trkpt lat="53.953608683892" lon="16.585880593822">
        <ele>110.4</ele>
        <time>2019-07-30T13:06:39Z</time>
      </trkpt>
      <trkpt lat="53.953537102466" lon="16.585738604436">
        <ele>108.4</ele>
        <time>2019-07-30T13:06:59Z</time>
      </trkpt>
      <trkpt lat="53.95352503253" lon="16.585664927535">
        <ele>107.8</ele>
        <time>2019-07-30T13:07:02Z</time>
      </trkpt>
      <trkpt lat="53.953454456932" lon="16.585587897874">
        <ele>109</ele>
        <time>2019-07-30T13:07:27Z</time>
      </trkpt>
      <trkpt lat="53.95348899036" lon="16.585724103749">
        <ele>124.2</ele>
        <time>2019-07-30T13:08:54Z</time>
      </trkpt>
      <trkpt lat="53.953500892658" lon="16.585747573069">
        <ele>124.2</ele>
        <time>2019-07-30T13:08:56Z</time>
      </trkpt>
      <trkpt lat="53.953542299244" lon="16.585791494225">
        <ele>116.2</ele>
        <time>2019-07-30T13:09:20Z</time>
      </trkpt>
      <trkpt lat="53.953641792397" lon="16.585942871339">
        <ele>113.4</ele>
        <time>2019-07-30T13:09:37Z</time>
      </trkpt>
      <trkpt lat="53.953753271667" lon="16.586079663947">
        <ele>114.4</ele>
        <time>2019-07-30T13:09:51Z</time>
      </trkpt>
      <trkpt lat="53.953752265839" lon="16.586071952599">
        <ele>110.8</ele>
        <time>2019-07-30T13:11:03Z</time>
      </trkpt>
      <trkpt lat="53.953724940845" lon="16.586050662573">
        <ele>113.2</ele>
        <time>2019-07-30T13:11:06Z</time>
      </trkpt>
      <trkpt lat="53.953815381546" lon="16.586148479346">
        <ele>112.6</ele>
        <time>2019-07-30T13:13:27Z</time>
      </trkpt>
      <trkpt lat="53.953820326867" lon="16.586181252575">
        <ele>112</ele>
        <time>2019-07-30T13:13:30Z</time>
      </trkpt>
      <trkpt lat="53.953842371264" lon="16.586203716067">
        <ele>113</ele>
        <time>2019-07-30T13:13:38Z</time>
      </trkpt>
      <trkpt lat="53.953883610212" lon="16.586284433764">
        <ele>113</ele>
        <time>2019-07-30T13:13:45Z</time>
      </trkpt>
      <trkpt lat="53.954059713931" lon="16.586540333171">
        <ele>113.2</ele>
        <time>2019-07-30T13:14:09Z</time>
      </trkpt>
      <trkpt lat="53.954306393248" lon="16.586821881192">
        <ele>111.4</ele>
        <time>2019-07-30T13:14:38Z</time>
      </trkpt>
      <trkpt lat="53.95465155989" lon="16.587221697822">
        <ele>107.6</ele>
        <time>2019-07-30T13:15:21Z</time>
      </trkpt>
      <trkpt lat="53.95502958358" lon="16.587617072045">
        <ele>109</ele>
        <time>2019-07-30T13:16:01Z</time>
      </trkpt>
      <trkpt lat="53.955253464129" lon="16.587860733878">
        <ele>116.8</ele>
        <time>2019-07-30T13:16:28Z</time>
      </trkpt>
      <trkpt lat="53.955606174481" lon="16.588325594052">
        <ele>121</ele>
        <time>2019-07-30T13:17:43Z</time>
      </trkpt>
      <trkpt lat="53.955701225227" lon="16.588431541268">
        <ele>119</ele>
        <time>2019-07-30T13:18:17Z</time>
      </trkpt>
      <trkpt lat="53.955774147757" lon="16.588544445461">
        <ele>118.4</ele>
        <time>2019-07-30T13:18:28Z</time>
      </trkpt>
      <trkpt lat="53.955779176897" lon="16.588670509237">
        <ele>118.6</ele>
        <time>2019-07-30T13:18:38Z</time>
      </trkpt>
      <trkpt lat="53.955812033945" lon="16.588656679102">
        <ele>118.6</ele>
        <time>2019-07-30T13:18:47Z</time>
      </trkpt>
      <trkpt lat="53.95581664399" lon="16.588328108622">
        <ele>121</ele>
        <time>2019-07-30T13:19:23Z</time>
      </trkpt>
      <trkpt lat="53.955816476352" lon="16.58849591426">
        <ele>119</ele>
        <time>2019-07-30T13:19:36Z</time>
      </trkpt>
      <trkpt lat="53.95582670227" lon="16.588834626839">
        <ele>121.2</ele>
        <time>2019-07-30T13:19:56Z</time>
      </trkpt>
      <trkpt lat="53.95599601665" lon="16.589517081137">
        <ele>118.2</ele>
        <time>2019-07-30T13:20:38Z</time>
      </trkpt>
      <trkpt lat="53.956189470902" lon="16.590083278482">
        <ele>123.2</ele>
        <time>2019-07-30T13:21:14Z</time>
      </trkpt>
      <trkpt lat="53.956255604093" lon="16.590546881371">
        <ele>126.4</ele>
        <time>2019-07-30T13:21:41Z</time>
      </trkpt>
      <trkpt lat="53.956239678483" lon="16.590731199352">
        <ele>126.2</ele>
        <time>2019-07-30T13:21:50Z</time>
      </trkpt>
      <trkpt lat="53.956162984098" lon="16.590790207928">
        <ele>128.2</ele>
        <time>2019-07-30T13:21:58Z</time>
      </trkpt>
      <trkpt lat="53.955923345577" lon="16.590956923919">
        <ele>125.6</ele>
        <time>2019-07-30T13:22:40Z</time>
      </trkpt>
      <trkpt lat="53.95598679656" lon="16.590866147942">
        <ele>127.4</ele>
        <time>2019-07-30T13:25:50Z</time>
      </trkpt>
      <trkpt lat="53.956052510656" lon="16.59080177495">
        <ele>128.2</ele>
        <time>2019-07-30T13:25:57Z</time>
      </trkpt>
      <trkpt lat="53.956188884169" lon="16.590702784711">
        <ele>121.8</ele>
        <time>2019-07-30T13:26:30Z</time>
      </trkpt>
      <trkpt lat="53.95623825356" lon="16.590480245266">
        <ele>124</ele>
        <time>2019-07-30T13:26:41Z</time>
      </trkpt>
      <trkpt lat="53.956199193906" lon="16.590274218164">
        <ele>127.8</ele>
        <time>2019-07-30T13:26:52Z</time>
      </trkpt>
      <trkpt lat="53.956012277536" lon="16.589575000066">
        <ele>125</ele>
        <time>2019-07-30T13:27:32Z</time>
      </trkpt>
      <trkpt lat="53.95583424598" lon="16.588874524683">
        <ele>124.6</ele>
        <time>2019-07-30T13:28:10Z</time>
      </trkpt>
      <trkpt lat="53.955825193528" lon="16.58865600855">
        <ele>125.4</ele>
        <time>2019-07-30T13:28:23Z</time>
      </trkpt>
      <trkpt lat="53.955834748894" lon="16.588298352877">
        <ele>124.6</ele>
        <time>2019-07-30T13:29:08Z</time>
      </trkpt>
      <trkpt lat="53.955831144677" lon="16.588405976473">
        <ele>120.8</ele>
        <time>2019-07-30T13:29:57Z</time>
      </trkpt>
      <trkpt lat="53.955816308714" lon="16.588477138804">
        <ele>119.2</ele>
        <time>2019-07-30T13:30:01Z</time>
      </trkpt>
      <trkpt lat="53.955748499143" lon="16.5884255063">
        <ele>116.8</ele>
        <time>2019-07-30T13:30:16Z</time>
      </trkpt>
      <trkpt lat="53.955643054841" lon="16.588326348423">
        <ele>114.4</ele>
        <time>2019-07-30T13:30:33Z</time>
      </trkpt>
      <trkpt lat="53.955602486445" lon="16.588265495829">
        <ele>113.4</ele>
        <time>2019-07-30T13:30:40Z</time>
      </trkpt>
      <trkpt lat="53.95539000528" lon="16.587999873418">
        <ele>110.2</ele>
        <time>2019-07-30T13:31:12Z</time>
      </trkpt>
      <trkpt lat="53.955314065266" lon="16.587924017223">
        <ele>109</ele>
        <time>2019-07-30T13:31:24Z</time>
      </trkpt>
      <trkpt lat="53.955170986233" lon="16.587779848543">
        <ele>114.2</ele>
        <time>2019-07-30T13:32:05Z</time>
      </trkpt>
      <trkpt lat="53.955101835558" lon="16.587725282374">
        <ele>113.8</ele>
        <time>2019-07-30T13:32:13Z</time>
      </trkpt>
      <trkpt lat="53.955008461192" lon="16.587624951031">
        <ele>112.4</ele>
        <time>2019-07-30T13:32:26Z</time>
      </trkpt>
      <trkpt lat="53.954682489101" lon="16.587245418599">
        <ele>108.6</ele>
        <time>2019-07-30T13:33:03Z</time>
      </trkpt>
      <trkpt lat="53.954364982729" lon="16.586874268067">
        <ele>108</ele>
        <time>2019-07-30T13:33:38Z</time>
      </trkpt>
      <trkpt lat="53.954337909192" lon="16.586849960557">
        <ele>108.2</ele>
        <time>2019-07-30T13:33:44Z</time>
      </trkpt>
      <trkpt lat="53.954200446032" lon="16.586674862666">
        <ele>108.8</ele>
        <time>2019-07-30T13:34:00Z</time>
      </trkpt>
      <trkpt lat="53.953848992965" lon="16.586230202871">
        <ele>110.8</ele>
        <time>2019-07-30T13:34:42Z</time>
      </trkpt>
      <trkpt lat="53.953766515069" lon="16.586106486027">
        <ele>110.4</ele>
        <time>2019-07-30T13:34:52Z</time>
      </trkpt>
      <trkpt lat="53.953749751269" lon="16.58609282353">
        <ele>110.4</ele>
        <time>2019-07-30T13:34:54Z</time>
      </trkpt>
      <trkpt lat="53.953611030824" lon="16.585939518579">
        <ele>110.8</ele>
        <time>2019-07-30T13:35:10Z</time>
      </trkpt>
      <trkpt lat="53.953576665034" lon="16.585913534689">
        <ele>111</ele>
        <time>2019-07-30T13:35:14Z</time>
      </trkpt>
      <trkpt lat="53.953542299244" lon="16.585817142839">
        <ele>110.8</ele>
        <time>2019-07-30T13:35:21Z</time>
      </trkpt>
      <trkpt lat="53.95349066674" lon="16.585717984962">
        <ele>109.6</ele>
        <time>2019-07-30T13:35:29Z</time>
      </trkpt>
      <trkpt lat="53.953376086167" lon="16.58557985125">
        <ele>106.2</ele>
        <time>2019-07-30T13:35:43Z</time>
      </trkpt>
      <trkpt lat="53.953352281571" lon="16.58550106139">
        <ele>107.6</ele>
        <time>2019-07-30T13:36:08Z</time>
      </trkpt>
      <trkpt lat="53.953284220543" lon="16.585355719244">
        <ele>106.8</ele>
        <time>2019-07-30T13:36:21Z</time>
      </trkpt>
      <trkpt lat="53.953238958283" lon="16.58526217724">
        <ele>106.2</ele>
        <time>2019-07-30T13:36:32Z</time>
      </trkpt>
      <trkpt lat="53.953240718482" lon="16.585263183068">
        <ele>106.6</ele>
        <time>2019-07-30T13:36:48Z</time>
      </trkpt>
      <trkpt lat="53.953259661576" lon="16.585233427323">
        <ele>106</ele>
        <time>2019-07-30T13:36:52Z</time>
      </trkpt>
      <trkpt lat="53.953276425376" lon="16.585130749048">
        <ele>106.2</ele>
        <time>2019-07-30T13:37:02Z</time>
      </trkpt>
      <trkpt lat="53.953240215568" lon="16.58504340965">
        <ele>106</ele>
        <time>2019-07-30T13:37:09Z</time>
      </trkpt>
      <trkpt lat="53.953093197042" lon="16.584664883046">
        <ele>105.6</ele>
        <time>2019-07-30T13:37:37Z</time>
      </trkpt>
      <trkpt lat="53.953058831252" lon="16.584622051537">
        <ele>105.6</ele>
        <time>2019-07-30T13:37:42Z</time>
      </trkpt>
      <trkpt lat="53.953039804339" lon="16.584586009367">
        <ele>106</ele>
        <time>2019-07-30T13:37:46Z</time>
      </trkpt>
      <trkpt lat="53.953007785481" lon="16.584505459308">
        <ele>106.2</ele>
        <time>2019-07-30T13:37:52Z</time>
      </trkpt>
      <trkpt lat="53.953013401354" lon="16.584450893139">
        <ele>106.2</ele>
        <time>2019-07-30T13:37:55Z</time>
      </trkpt>
      <trkpt lat="53.953044498203" lon="16.584355758574">
        <ele>105.4</ele>
        <time>2019-07-30T13:38:01Z</time>
      </trkpt>
      <trkpt lat="53.95305648432" lon="16.584205471107">
        <ele>104.6</ele>
        <time>2019-07-30T13:38:09Z</time>
      </trkpt>
      <trkpt lat="53.953079786002" lon="16.584161130856">
        <ele>104.4</ele>
        <time>2019-07-30T13:38:13Z</time>
      </trkpt>
      <trkpt lat="53.953165113744" lon="16.583970023536">
        <ele>102.2</ele>
        <time>2019-07-30T13:38:27Z</time>
      </trkpt>
      <trkpt lat="53.953171400169" lon="16.583896262816">
        <ele>101.8</ele>
        <time>2019-07-30T13:38:32Z</time>
      </trkpt>
      <trkpt lat="53.953173328006" lon="16.583862483759">
        <ele>101.6</ele>
        <time>2019-07-30T13:38:34Z</time>
      </trkpt>
      <trkpt lat="53.953171735445" lon="16.58381797587">
        <ele>101.6</ele>
        <time>2019-07-30T13:38:37Z</time>
      </trkpt>
      <trkpt lat="53.953152373256" lon="16.583694678121">
        <ele>101.6</ele>
        <time>2019-07-30T13:38:47Z</time>
      </trkpt>
      <trkpt lat="53.953125383538" lon="16.583484879164">
        <ele>100.8</ele>
        <time>2019-07-30T13:39:05Z</time>
      </trkpt>
      <trkpt lat="53.953129071574" lon="16.583579175539">
        <ele>101.2</ele>
        <time>2019-07-30T13:39:28Z</time>
      </trkpt>
      <trkpt lat="53.953061681098" lon="16.583126217663">
        <ele>98.8</ele>
        <time>2019-07-30T13:39:53Z</time>
      </trkpt>
      <trkpt lat="53.952949698914" lon="16.582388442825">
        <ele>97.6</ele>
        <time>2019-07-30T13:40:35Z</time>
      </trkpt>
      <trkpt lat="53.952902173541" lon="16.582134722712">
        <ele>97.8</ele>
        <time>2019-07-30T13:41:00Z</time>
      </trkpt>
      <trkpt lat="53.952899239876" lon="16.581873710346">
        <ele>97.2</ele>
        <time>2019-07-30T13:41:49Z</time>
      </trkpt>
      <trkpt lat="53.952903682283" lon="16.582033972274">
        <ele>97</ele>
        <time>2019-07-30T13:41:59Z</time>
      </trkpt>
      <trkpt lat="53.952931677829" lon="16.582386012074">
        <ele>91.2</ele>
        <time>2019-07-30T13:42:24Z</time>
      </trkpt>
      <trkpt lat="53.953066039686" lon="16.583106687836">
        <ele>92.2</ele>
        <time>2019-07-30T13:43:08Z</time>
      </trkpt>
      <trkpt lat="53.953171483988" lon="16.583760056941">
        <ele>96</ele>
        <time>2019-07-30T13:43:52Z</time>
      </trkpt>
      <trkpt lat="53.953175339662" lon="16.583842451018">
        <ele>96</ele>
        <time>2019-07-30T13:43:56Z</time>
      </trkpt>
      <trkpt lat="53.953098310001" lon="16.584256013964">
        <ele>101.6</ele>
        <time>2019-07-30T13:44:22Z</time>
      </trkpt>
      <trkpt lat="53.953106105168" lon="16.584346538484">
        <ele>102.2</ele>
        <time>2019-07-30T13:44:26Z</time>
      </trkpt>
      <trkpt lat="53.9530916883" lon="16.584596905837">
        <ele>103.8</ele>
        <time>2019-07-30T13:44:42Z</time>
      </trkpt>
      <trkpt lat="53.953094454327" lon="16.584646359047">
        <ele>104</ele>
        <time>2019-07-30T13:44:45Z</time>
      </trkpt>
      <trkpt lat="53.953160671337" lon="16.584798239075">
        <ele>104.2</ele>
        <time>2019-07-30T13:44:57Z</time>
      </trkpt>
      <trkpt lat="53.953153965817" lon="16.584849033389">
        <ele>104</ele>
        <time>2019-07-30T13:45:00Z</time>
      </trkpt>
      <trkpt lat="53.953259493938" lon="16.585078194535">
        <ele>102.2</ele>
        <time>2019-07-30T13:45:17Z</time>
      </trkpt>
      <trkpt lat="53.953411457785" lon="16.585440795529">
        <ele>105</ele>
        <time>2019-07-30T13:45:43Z</time>
      </trkpt>
      <trkpt lat="53.953328812251" lon="16.585635758523">
        <ele>105.6</ele>
        <time>2019-07-30T13:46:27Z</time>
      </trkpt>
      <trkpt lat="53.953353874132" lon="16.585627041347">
        <ele>104.8</ele>
        <time>2019-07-30T13:47:30Z</time>
      </trkpt>
      <trkpt lat="53.953411960699" lon="16.585633579229">
        <ele>106.6</ele>
        <time>2019-07-30T13:48:21Z</time>
      </trkpt>
      <trkpt lat="53.953497036984" lon="16.585802558333">
        <ele>107.4</ele>
        <time>2019-07-30T13:48:39Z</time>
      </trkpt>
      <trkpt lat="53.953644642243" lon="16.586110676977">
        <ele>106.2</ele>
        <time>2019-07-30T13:49:05Z</time>
      </trkpt>
      <trkpt lat="53.953723767379" lon="16.586229280862">
        <ele>109.4</ele>
        <time>2019-07-30T13:49:18Z</time>
      </trkpt>
      <trkpt lat="53.953715217841" lon="16.586336401544">
        <ele>110.6</ele>
        <time>2019-07-30T13:49:26Z</time>
      </trkpt>
      <trkpt lat="53.95373625641" lon="16.58620514099">
        <ele>112.8</ele>
        <time>2019-07-30T13:49:42Z</time>
      </trkpt>
      <trkpt lat="53.953776824806" lon="16.586127273139">
        <ele>112.2</ele>
        <time>2019-07-30T13:49:50Z</time>
      </trkpt>
      <trkpt lat="53.953829044043" lon="16.586022918484">
        <ele>110.6</ele>
        <time>2019-07-30T13:49:59Z</time>
      </trkpt>
      <trkpt lat="53.953852597182" lon="16.585972878541">
        <ele>109.6</ele>
        <time>2019-07-30T13:50:03Z</time>
      </trkpt>
      <trkpt lat="53.953928872472" lon="16.585814209174">
        <ele>108</ele>
        <time>2019-07-30T13:50:16Z</time>
      </trkpt>
      <trkpt lat="53.953977152216" lon="16.585665933363">
        <ele>110</ele>
        <time>2019-07-30T13:50:30Z</time>
      </trkpt>
      <trkpt lat="53.954000621536" lon="16.585686888113">
        <ele>112.4</ele>
        <time>2019-07-30T13:51:10Z</time>
      </trkpt>
      <trkpt lat="53.954041944303" lon="16.585647828459">
        <ele>114.2</ele>
        <time>2019-07-30T13:51:20Z</time>
      </trkpt>
      <trkpt lat="53.954060216845" lon="16.585614552316">
        <ele>114.2</ele>
        <time>2019-07-30T13:51:23Z</time>
      </trkpt>
      <trkpt lat="53.954148310614" lon="16.585470718912">
        <ele>113.6</ele>
        <time>2019-07-30T13:51:37Z</time>
      </trkpt>
      <trkpt lat="53.953886711515" lon="16.585858717063">
        <ele>110.6</ele>
        <time>2019-07-30T13:55:45Z</time>
      </trkpt>
      <trkpt lat="53.953861230539" lon="16.585784118153">
        <ele>109.2</ele>
        <time>2019-07-30T13:55:51Z</time>
      </trkpt>
      <trkpt lat="53.953898529994" lon="16.585630645564">
        <ele>107.6</ele>
        <time>2019-07-30T13:56:16Z</time>
      </trkpt>
      <trkpt lat="53.953850669345" lon="16.585628885365">
        <ele>109.2</ele>
        <time>2019-07-30T13:56:55Z</time>
      </trkpt>
      <trkpt lat="53.95391143812" lon="16.585952510524">
        <ele>107.8</ele>
        <time>2019-07-30T13:57:39Z</time>
      </trkpt>
      <trkpt lat="53.953930213576" lon="16.586071449685">
        <ele>108.6</ele>
        <time>2019-07-30T13:57:48Z</time>
      </trkpt>
      <trkpt lat="53.953900206374" lon="16.586136241772">
        <ele>109.2</ele>
        <time>2019-07-30T13:57:53Z</time>
      </trkpt>
      <trkpt lat="53.953909677921" lon="16.586307567808">
        <ele>107</ele>
        <time>2019-07-30T13:58:16Z</time>
      </trkpt>
      <trkpt lat="53.953926860816" lon="16.586394823387">
        <ele>107.2</ele>
        <time>2019-07-30T13:58:22Z</time>
      </trkpt>
      <trkpt lat="53.953943792254" lon="16.586457939094">
        <ele>108.2</ele>
        <time>2019-07-30T13:58:26Z</time>
      </trkpt>
    </trkseg>
  </trk>
</gpx>